Time;durP1;ratioP1;P1;durP2;ratioP2;P2;SDS_P1;SDS_P2;PMS_P1;PMS_P2;Temp;Humidity;BMP_temperature;BMP_pressure;BME280_temperature;BME280_humidity;BME280_pressure;Samples;Min_cycle;Max_cycle;Signal;HPM_P1;HPM_P2
2022/11/14 00:00:17;;;;;;;6.05;3.95;;;3.10;99.90;;;;;;5034243;28;20656;-56
2022/11/14 00:03:05;;;;;;;4.63;3.75;;;3.00;99.90;;;;;;5034103;28;20627;-55
2022/11/14 00:05:51;;;;;;;5.82;4.13;;;3.00;99.90;;;;;;5034121;28;20112;-56
2022/11/14 00:08:36;;;;;;;4.95;3.90;;;3.00;99.90;;;;;;5025326;28;20078;-55
2022/11/14 00:11:22;;;;;;;6.43;3.88;;;3.00;99.90;;;;;;5027416;28;20504;-55
2022/11/14 00:14:09;;;;;;;5.45;3.33;;;3.00;99.90;;;;;;5032531;28;20051;-57
2022/11/14 00:16:54;;;;;;;4.63;2.97;;;3.00;99.90;;;;;;5031190;28;20186;-56
2022/11/14 00:19:40;;;;;;;5.65;3.97;;;3.00;99.90;;;;;;5029389;28;20060;-55
2022/11/14 00:22:25;;;;;;;4.00;3.30;;;3.10;99.90;;;;;;5028410;28;20427;-55
2022/11/14 00:25:11;;;;;;;5.22;3.95;;;3.10;99.90;;;;;;5029247;28;20059;-56
2022/11/14 00:28:00;;;;;;;7.05;3.60;;;3.20;99.90;;;;;;5032378;28;20122;-55
2022/11/14 00:30:47;;;;;;;6.10;3.78;;;3.20;99.90;;;;;;5031726;28;20064;-57
2022/11/14 00:33:32;;;;;;;5.05;3.83;;;3.30;99.90;;;;;;5031913;28;20130;-56
2022/11/14 00:36:17;;;;;;;5.28;3.97;;;3.30;99.90;;;;;;5030424;28;20059;-55
2022/11/14 00:39:03;;;;;;;6.07;3.92;;;3.40;99.90;;;;;;5029015;28;20327;-55
2022/11/14 00:41:48;;;;;;;3.58;3.08;;;3.40;99.90;;;;;;5031791;28;20845;-57
2022/11/14 00:44:34;;;;;;;6.07;4.30;;;3.40;99.90;;;;;;5034328;28;20090;-56
2022/11/14 00:47:20;;;;;;;5.72;4.40;;;3.50;99.90;;;;;;5030720;28;20187;-57
2022/11/14 00:50:06;;;;;;;8.30;4.10;;;3.50;99.90;;;;;;5033873;28;20087;-55
2022/11/14 00:52:51;;;;;;;5.90;4.70;;;3.50;99.90;;;;;;5031280;28;20056;-56
2022/11/14 00:55:37;;;;;;;5.13;4.35;;;3.50;99.90;;;;;;5026335;28;20055;-56
2022/11/14 00:58:22;;;;;;;8.95;5.93;;;3.50;99.90;;;;;;5025821;28;20403;-56
2022/11/14 01:01:08;;;;;;;6.53;4.53;;;3.50;99.90;;;;;;5026355;28;20388;-56
2022/11/14 01:03:54;;;;;;;8.18;6.05;;;3.50;99.90;;;;;;5031064;28;20110;-56
2022/11/14 01:06:40;;;;;;;8.25;5.90;;;3.50;99.90;;;;;;5029636;28;20498;-55
2022/11/14 01:09:25;;;;;;;9.20;5.47;;;3.50;99.90;;;;;;5026678;28;20067;-55
2022/11/14 01:12:11;;;;;;;6.97;5.47;;;3.50;99.90;;;;;;5033025;28;20250;-59
2022/11/14 01:14:56;;;;;;;8.60;5.97;;;3.40;99.90;;;;;;5025879;28;20489;-54
2022/11/14 01:17:42;;;;;;;12.55;5.93;;;3.40;99.90;;;;;;5028373;28;20127;-54
2022/11/14 01:20:27;;;;;;;8.13;6.30;;;3.40;99.90;;;;;;5028918;28;20575;-55
2022/11/14 01:23:15;;;;;;;6.90;5.50;;;3.30;99.90;;;;;;5031203;28;20079;-57
2022/11/14 01:26:06;;;;;;;7.70;5.30;;;3.30;99.90;;;;;;5028464;28;20586;-54
2022/11/14 01:28:53;;;;;;;6.72;5.70;;;3.20;99.90;;;;;;5029307;28;20055;-55
2022/11/14 01:31:38;;;;;;;7.90;5.80;;;3.30;99.90;;;;;;5026616;28;20194;-55
2022/11/14 01:34:24;;;;;;;12.07;5.40;;;3.30;99.90;;;;;;5031659;28;20517;-56
2022/11/14 01:37:09;;;;;;;8.77;5.88;;;3.30;99.90;;;;;;5032035;28;20835;-56
2022/11/14 01:39:54;;;;;;;8.95;5.65;;;3.30;99.90;;;;;;5029990;28;20060;-56
2022/11/14 01:42:40;;;;;;;8.25;5.82;;;3.30;99.90;;;;;;5027225;28;20055;-56
2022/11/14 01:45:47;;;;;;;11.23;6.28;;;3.30;99.90;;;;;;5029729;28;20445;-55
2022/11/14 01:48:38;;;;;;;7.13;5.82;;;3.30;99.90;;;;;;5030695;28;20107;-56
2022/11/14 01:52:01;;;;;;;9.57;6.55;;;3.30;99.90;;;;;;5029579;28;20171;-57
2022/11/14 01:54:50;;;;;;;9.05;6.35;;;3.30;99.90;;;;;;5011435;28;20537;-55
2022/11/14 01:57:39;;;;;;;10.70;6.43;;;3.40;99.90;;;;;;5030708;28;20059;-56
2022/11/14 02:00:25;;;;;;;7.50;6.07;;;3.40;99.90;;;;;;5032049;28;20130;-56
2022/11/14 02:03:13;;;;;;;10.35;7.20;;;3.40;99.90;;;;;;5027561;28;20371;-55
2022/11/14 02:06:00;;;;;;;9.55;6.57;;;3.40;99.90;;;;;;5029022;28;20064;-55
2022/11/14 02:08:47;;;;;;;8.48;5.70;;;3.40;99.90;;;;;;5022465;28;20453;-55
2022/11/14 02:11:38;;;;;;;9.02;6.10;;;3.40;99.90;;;;;;5028706;28;20365;-56
2022/11/14 02:14:23;;;;;;;6.05;5.30;;;3.40;99.90;;;;;;5026939;28;20055;-56
2022/11/14 02:17:09;;;;;;;9.95;5.93;;;3.40;99.90;;;;;;5026350;28;20435;-58
2022/11/14 02:20:19;;;;;;;7.95;5.53;;;3.40;99.90;;;;;;5031529;28;20071;-56
2022/11/14 02:23:05;;;;;;;11.07;6.13;;;3.50;99.90;;;;;;5026708;28;20137;-57
2022/11/14 02:25:50;;;;;;;9.02;6.50;;;3.50;99.90;;;;;;5024549;28;20072;-57
2022/11/14 02:28:36;;;;;;;8.88;5.88;;;3.50;99.90;;;;;;5027992;28;20158;-55
2022/11/14 02:31:21;;;;;;;6.63;5.38;;;3.50;99.90;;;;;;5028762;28;20056;-55
2022/11/14 02:34:07;;;;;;;8.35;5.75;;;3.50;99.90;;;;;;5029396;28;20064;-56
2022/11/14 02:36:53;;;;;;;9.68;6.53;;;3.50;99.90;;;;;;5029479;28;20541;-54
2022/11/14 02:39:38;;;;;;;11.50;7.18;;;3.50;99.90;;;;;;5027221;28;20419;-56
2022/11/14 02:42:24;;;;;;;9.43;6.57;;;3.50;99.90;;;;;;5033395;28;20053;-56
2022/11/14 02:45:11;;;;;;;8.15;6.25;;;3.50;99.90;;;;;;5029039;28;20110;-57
2022/11/14 02:47:56;;;;;;;8.93;5.70;;;3.50;99.90;;;;;;5032040;28;20079;-55
2022/11/14 02:50:42;;;;;;;8.35;5.75;;;3.60;99.90;;;;;;5029656;28;20450;-56
2022/11/14 02:53:27;;;;;;;9.65;6.03;;;3.60;99.90;;;;;;5025618;28;20146;-55
2022/11/14 02:56:13;;;;;;;8.45;5.85;;;3.60;99.90;;;;;;5028492;28;20151;-55
2022/11/14 02:58:58;;;;;;;8.52;5.82;;;3.60;99.90;;;;;;5022710;28;20086;-56
2022/11/14 03:01:44;;;;;;;10.75;6.38;;;3.60;99.90;;;;;;5028963;28;20216;-56
2022/11/14 03:04:29;;;;;;;7.45;5.75;;;3.60;99.90;;;;;;5020492;28;20078;-56
2022/11/14 03:07:15;;;;;;;11.40;7.20;;;3.70;99.90;;;;;;5027014;28;20525;-57
2022/11/14 03:10:01;;;;;;;7.10;5.80;;;3.70;99.90;;;;;;5029014;28;20069;-56
2022/11/14 03:12:46;;;;;;;11.68;7.18;;;3.70;99.90;;;;;;5034620;28;20056;-55
2022/11/14 03:15:31;;;;;;;10.95;7.50;;;3.70;99.90;;;;;;5037173;28;20044;-56
2022/11/14 03:18:17;;;;;;;11.32;6.75;;;3.70;99.90;;;;;;5035700;28;20186;-55
2022/11/14 03:21:19;;;;;;;7.75;6.22;;;3.70;99.90;;;;;;5032755;28;20099;-55
2022/11/14 03:24:05;;;;;;;8.13;6.03;;;3.80;99.90;;;;;;5032179;28;20457;-57
2022/11/14 03:26:50;;;;;;;8.77;6.72;;;3.70;99.90;;;;;;5034016;28;20262;-56
2022/11/14 03:29:36;;;;;;;7.65;6.30;;;3.80;99.90;;;;;;5033751;28;20605;-56
2022/11/14 03:32:21;;;;;;;7.45;5.65;;;3.80;99.90;;;;;;5034536;28;20056;-55
2022/11/14 03:35:07;;;;;;;9.23;6.50;;;3.80;99.90;;;;;;5032305;28;20052;-56
2022/11/14 03:37:52;;;;;;;9.10;6.00;;;3.80;99.90;;;;;;5030774;28;20384;-55
2022/11/14 03:40:41;;;;;;;9.43;6.38;;;3.80;99.90;;;;;;5027552;28;20497;-57
2022/11/14 03:43:31;;;;;;;12.45;7.00;;;3.90;99.90;;;;;;5032309;28;20055;-55
2022/11/14 03:46:16;;;;;;;8.75;6.30;;;3.90;99.90;;;;;;5030241;28;20357;-57
2022/11/14 03:49:02;;;;;;;12.73;9.52;;;3.90;99.90;;;;;;5032179;28;20125;-56
2022/11/14 03:51:47;;;;;;;22.83;12.40;;;3.90;99.90;;;;;;5029735;28;20071;-55
2022/11/14 03:54:33;;;;;;;20.33;11.85;;;3.90;99.90;;;;;;5032045;28;20253;-57
2022/11/14 03:57:18;;;;;;;23.15;12.48;;;3.90;99.90;;;;;;5033343;28;20837;-56
2022/11/14 04:00:04;;;;;;;19.20;12.18;;;4.00;99.90;;;;;;5030909;28;20133;-56
2022/11/14 04:02:50;;;;;;;28.52;13.88;;;4.00;99.90;;;;;;5032280;28;20056;-57
2022/11/14 04:05:35;;;;;;;14.73;8.68;;;4.10;99.90;;;;;;5031294;28;20389;-56
2022/11/14 04:08:21;;;;;;;11.48;7.68;;;4.10;99.90;;;;;;5033812;28;20064;-57
2022/11/14 04:11:06;;;;;;;12.65;8.55;;;4.20;99.90;;;;;;5028885;28;20601;-57
2022/11/14 04:13:52;;;;;;;12.88;8.50;;;4.30;99.90;;;;;;5031254;28;20529;-55
2022/11/14 04:16:37;;;;;;;12.32;7.85;;;4.40;99.90;;;;;;5031837;28;20049;-55
2022/11/14 04:19:23;;;;;;;10.20;7.15;;;4.40;99.90;;;;;;5025763;28;20060;-56
2022/11/14 04:22:08;;;;;;;10.27;6.20;;;4.50;99.90;;;;;;5029699;28;20580;-56
2022/11/14 04:24:54;;;;;;;8.05;5.28;;;4.50;99.90;;;;;;5028152;28;20522;-56
2022/11/14 04:27:39;;;;;;;11.25;7.88;;;4.60;99.90;;;;;;5032153;28;20065;-56
2022/11/14 04:30:25;;;;;;;14.27;6.70;;;4.70;99.90;;;;;;5024244;28;20637;-56
2022/11/14 04:33:16;;;;;;;10.25;6.82;;;4.70;99.90;;;;;;5024179;28;20579;-57
2022/11/14 04:36:02;;;;;;;9.02;6.10;;;4.70;99.90;;;;;;5030245;28;20052;-55
2022/11/14 04:38:47;;;;;;;8.70;6.60;;;4.80;99.90;;;;;;5027156;28;20052;-55
2022/11/14 04:41:32;;;;;;;15.20;8.20;;;4.80;99.90;;;;;;5025917;28;20330;-53
2022/11/14 04:44:18;;;;;;;10.65;7.18;;;4.90;99.90;;;;;;5028767;28;20057;-55
2022/11/14 04:47:03;;;;;;;12.82;7.68;;;4.90;99.90;;;;;;5031266;28;20102;-57
2022/11/14 04:49:49;;;;;;;11.50;7.38;;;4.90;99.90;;;;;;5031421;28;20331;-56
2022/11/14 04:52:35;;;;;;;10.10;6.82;;;4.90;99.90;;;;;;5029721;28;20169;-56
2022/11/14 04:55:20;;;;;;;8.38;6.53;;;5.00;99.90;;;;;;5032373;28;20171;-56
2022/11/14 04:58:06;;;;;;;11.02;7.75;;;5.00;99.90;;;;;;5028474;28;20060;-58
2022/11/14 05:00:51;;;;;;;9.93;6.25;;;5.10;99.90;;;;;;5031019;28;20052;-56
2022/11/14 05:03:37;;;;;;;10.75;5.85;;;5.10;99.90;;;;;;5029045;28;20585;-57
2022/11/14 05:06:22;;;;;;;8.85;5.57;;;5.10;99.90;;;;;;5029815;28;20076;-57
2022/11/14 05:09:07;;;;;;;7.60;4.57;;;5.10;99.90;;;;;;5026656;28;20197;-55
2022/11/14 05:11:53;;;;;;;7.10;5.28;;;5.10;99.90;;;;;;5029473;28;20056;-56
2022/11/14 05:14:38;;;;;;;6.80;4.70;;;5.10;99.90;;;;;;5029993;28;20064;-55
2022/11/14 05:17:24;;;;;;;9.43;5.18;;;5.10;99.90;;;;;;5031207;28;20138;-56
2022/11/14 05:20:10;;;;;;;7.10;5.47;;;5.10;99.90;;;;;;5030758;28;20617;-56
2022/11/14 05:22:57;;;;;;;7.22;4.63;;;5.10;99.90;;;;;;5031684;28;20105;-55
2022/11/14 05:25:42;;;;;;;8.77;6.03;;;5.10;99.90;;;;;;5025996;28;20060;-56
2022/11/14 05:28:28;;;;;;;10.38;6.15;;;5.00;99.90;;;;;;5031344;28;20843;-55
2022/11/14 05:31:16;;;;;;;10.45;7.05;;;5.10;99.90;;;;;;5026013;28;20458;-57
2022/11/14 05:34:02;;;;;;;14.43;7.20;;;5.10;99.90;;;;;;5027335;28;20183;-58
2022/11/14 05:36:47;;;;;;;11.27;7.80;;;5.10;99.90;;;;;;5030491;28;20052;-55
2022/11/14 05:39:32;;;;;;;11.65;6.93;;;5.10;99.90;;;;;;5020693;28;20065;-55
2022/11/14 05:42:18;;;;;;;12.63;6.45;;;5.10;99.90;;;;;;5029422;28;20061;-56
2022/11/14 05:45:04;;;;;;;11.05;7.38;;;5.20;99.90;;;;;;5029563;28;20060;-57
2022/11/14 05:47:53;;;;;;;12.90;7.07;;;5.20;99.90;;;;;;5034773;28;20568;-56
2022/11/14 05:50:38;;;;;;;18.95;10.40;;;5.20;99.90;;;;;;5022254;28;20096;-56
2022/11/14 05:53:23;;;;;;;19.85;11.05;;;5.20;99.90;;;;;;5028638;28;20074;-57
2022/11/14 05:56:11;;;;;;;17.05;10.38;;;5.30;99.90;;;;;;5023797;28;20237;-55
2022/11/14 05:58:56;;;;;;;21.02;12.80;;;5.30;99.90;;;;;;5024959;28;20049;-58
2022/11/14 06:01:41;;;;;;;29.83;18.10;;;5.30;99.90;;;;;;5028580;28;20533;-56
2022/11/14 06:04:27;;;;;;;31.25;15.85;;;5.40;99.90;;;;;;5032661;28;20454;-56
2022/11/14 06:07:13;;;;;;;36.45;16.83;;;5.40;99.90;;;;;;5029610;28;20549;-54
2022/11/14 06:10:04;;;;;;;33.25;15.60;;;5.50;99.90;;;;;;5027274;28;20064;-63
2022/11/14 06:12:50;;;;;;;25.98;16.38;;;5.50;99.90;;;;;;5026249;28;20098;-54
2022/11/14 06:15:35;;;;;;;23.75;14.27;;;5.50;99.90;;;;;;5028694;28;20295;-53
2022/11/14 06:18:21;;;;;;;19.98;12.02;;;5.60;99.90;;;;;;5027683;28;20184;-50
2022/11/14 06:21:11;;;;;;;20.33;11.60;;;5.60;99.90;;;;;;5023271;28;20297;-54
2022/11/14 06:23:56;;;;;;;23.33;12.85;;;5.60;99.90;;;;;;5025989;28;20052;-53
2022/11/14 06:26:42;;;;;;;16.40;11.27;;;5.60;99.90;;;;;;5031894;28;20060;-56
2022/11/14 06:29:27;;;;;;;17.13;11.00;;;5.60;99.90;;;;;;5027536;28;20094;-55
2022/11/14 06:32:20;;;;;;;19.13;11.75;;;5.70;99.90;;;;;;5027353;28;20850;-55
2022/11/14 06:35:07;;;;;;;17.63;11.05;;;5.70;99.90;;;;;;5024490;28;20105;-53
2022/11/14 06:37:53;;;;;;;23.23;13.20;;;5.70;99.90;;;;;;5026001;28;20048;-53
2022/11/14 06:40:38;;;;;;;17.38;10.65;;;5.70;99.90;;;;;;5027612;28;20832;-54
2022/11/14 06:43:24;;;;;;;16.88;11.88;;;5.70;99.90;;;;;;5030109;28;20053;-53
2022/11/14 06:46:12;;;;;;;16.23;9.75;;;5.80;99.90;;;;;;5030686;28;20474;-53
2022/11/14 06:48:57;;;;;;;18.08;10.32;;;5.80;99.90;;;;;;5033165;28;20060;-55
2022/11/14 06:51:42;;;;;;;10.50;7.50;;;5.80;99.90;;;;;;5025740;28;20103;-55
2022/11/14 06:54:29;;;;;;;8.80;5.82;;;5.90;99.90;;;;;;5029408;28;20340;-54
2022/11/14 06:57:14;;;;;;;12.65;6.63;;;5.90;99.90;;;;;;5032641;28;20120;-53
2022/11/14 07:00:00;;;;;;;8.25;6.03;;;6.00;99.90;;;;;;5028527;28;20110;-54
2022/11/14 07:02:46;;;;;;;8.88;5.30;;;6.10;99.90;;;;;;5029473;28;20112;-56
2022/11/14 07:05:32;;;;;;;8.18;5.13;;;6.20;99.90;;;;;;5022643;28;20056;-56
2022/11/14 07:08:18;;;;;;;10.13;6.97;;;6.20;99.90;;;;;;5026341;28;20081;-55
2022/11/14 07:11:11;;;;;;;16.40;9.98;;;6.30;99.90;;;;;;5024726;28;20431;-57
2022/11/14 07:14:00;;;;;;;16.00;10.27;;;6.30;99.90;;;;;;5024356;28;20855;-56
2022/11/14 07:16:46;;;;;;;13.95;8.73;;;6.30;99.90;;;;;;5026938;28;20051;-55
2022/11/14 07:19:31;;;;;;;13.05;8.32;;;6.40;99.90;;;;;;5027853;28;20087;-55
2022/11/14 07:22:16;;;;;;;13.75;9.63;;;6.30;99.90;;;;;;5024480;28;20047;-56
2022/11/14 07:25:02;;;;;;;12.55;8.48;;;6.30;99.90;;;;;;5031444;28;20063;-53
2022/11/14 07:27:47;;;;;;;13.98;9.27;;;6.30;99.90;;;;;;5030539;28;20061;-54
2022/11/14 07:30:33;;;;;;;5.00;3.83;;;6.40;99.90;;;;;;5024325;28;20055;-53
2022/11/14 07:33:19;;;;;;;3.00;2.17;;;6.40;99.90;;;;;;5020429;28;20384;-54
2022/11/14 07:36:05;;;;;;;4.00;2.28;;;6.50;99.90;;;;;;5027691;28;20285;-55
2022/11/14 07:38:51;;;;;;;2.50;2.13;;;6.60;99.90;;;;;;5032349;28;20064;-54
2022/11/14 07:41:36;;;;;;;9.65;5.60;;;6.70;99.90;;;;;;5026279;28;20360;-53
2022/11/14 07:44:22;;;;;;;10.80;7.68;;;6.80;99.90;;;;;;5028396;28;20060;-57
2022/11/14 07:47:07;;;;;;;16.02;8.90;;;6.80;99.90;;;;;;5022511;28;20081;-51
2022/11/14 07:49:53;;;;;;;12.43;7.20;;;6.80;99.90;;;;;;5024509;28;20065;-52
2022/11/14 07:52:38;;;;;;;7.03;4.03;;;6.80;99.90;;;;;;5025386;28;20426;-52
2022/11/14 07:55:24;;;;;;;5.07;2.75;;;6.80;99.90;;;;;;5030579;28;20068;-52
2022/11/14 07:58:09;;;;;;;3.80;2.70;;;6.80;99.90;;;;;;5029556;28;20052;-60
2022/11/14 08:00:55;;;;;;;12.35;5.95;;;6.80;99.90;;;;;;5028358;28;20053;-52
2022/11/14 08:03:41;;;;;;;11.52;6.43;;;6.80;99.90;;;;;;5030758;28;20682;-51
2022/11/14 08:06:30;;;;;;;6.68;4.70;;;6.80;99.90;;;;;;5029044;28;20393;-53
2022/11/14 08:09:15;;;;;;;6.25;3.20;;;6.90;99.90;;;;;;5028491;28;20596;-53
2022/11/14 08:12:01;;;;;;;4.20;2.95;;;6.80;99.90;;;;;;5024411;28;20060;-54
2022/11/14 08:14:46;;;;;;;4.82;3.40;;;6.90;99.90;;;;;;5025327;28;20068;-55
2022/11/14 08:17:32;;;;;;;6.00;3.83;;;6.90;99.90;;;;;;5023921;28;20254;-54
2022/11/14 08:20:17;;;;;;;8.38;3.95;;;6.90;99.90;;;;;;5025957;28;20197;-52
2022/11/14 08:23:05;;;;;;;5.57;3.08;;;6.90;99.90;;;;;;5032603;28;20525;-58
2022/11/14 08:25:51;;;;;;;11.30;3.22;;;6.90;99.90;;;;;;5029946;28;20080;-54
2022/11/14 08:28:37;;;;;;;5.20;3.35;;;6.90;99.90;;;;;;5027467;28;20053;-54
2022/11/14 08:31:22;;;;;;;6.28;3.42;;;7.00;99.90;;;;;;5040187;28;20192;-50
2022/11/14 08:34:08;;;;;;;6.60;2.78;;;7.00;99.90;;;;;;5035258;28;20501;-50
2022/11/14 08:36:55;;;;;;;4.65;2.40;;;7.00;99.90;;;;;;5031143;28;20145;-49
2022/11/14 08:39:41;;;;;;;6.60;2.45;;;7.10;99.90;;;;;;5029573;28;20055;-53
2022/11/14 08:42:26;;;;;;;4.43;2.13;;;7.20;99.90;;;;;;5030878;28;20064;-51
2022/11/14 08:45:12;;;;;;;4.45;1.83;;;7.30;99.90;;;;;;5025222;28;20519;-50
2022/11/14 08:47:57;;;;;;;1.40;1.30;;;7.30;99.90;;;;;;5029538;28;20640;-49
2022/11/14 08:50:43;;;;;;;2.08;1.70;;;7.40;99.90;;;;;;5026445;28;20064;-49
2022/11/14 08:53:29;;;;;;;7.30;2.78;;;7.50;99.90;;;;;;5029383;28;20064;-49
2022/11/14 08:56:14;;;;;;;6.60;1.92;;;7.50;99.90;;;;;;5031088;28;20162;-50
2022/11/14 08:59:03;;;;;;;3.88;1.67;;;7.60;99.90;;;;;;5031719;28;20065;-54
2022/11/14 09:01:48;;;;;;;1.83;1.42;;;7.60;99.90;;;;;;5029598;28;20056;-54
2022/11/14 09:04:33;;;;;;;3.42;1.52;;;7.70;99.90;;;;;;5031747;28;20092;-53
2022/11/14 09:07:19;;;;;;;1.20;1.08;;;7.70;99.90;;;;;;5026636;28;20736;-53
2022/11/14 09:10:05;;;;;;;1.33;1.23;;;7.70;99.90;;;;;;5026637;28;20056;-53
2022/11/14 09:12:58;;;;;;;1.65;1.20;;;7.80;99.90;;;;;;5026121;28;20060;-50
2022/11/14 09:15:44;;;;;;;2.25;1.50;;;7.80;99.90;;;;;;5022997;28;20052;-49
2022/11/14 09:18:29;;;;;;;2.47;1.58;;;7.80;99.90;;;;;;5021056;28;20450;-48
2022/11/14 09:21:15;;;;;;;2.33;1.45;;;7.80;99.90;;;;;;5030509;28;20060;-48
2022/11/14 09:24:01;;;;;;;3.08;1.65;;;7.80;99.90;;;;;;5032227;28;20092;-49
2022/11/14 09:26:48;;;;;;;1.48;1.30;;;7.80;99.90;;;;;;5032033;28;20048;-53
2022/11/14 09:29:40;;;;;;;1.98;1.20;;;7.80;99.90;;;;;;5026869;28;20895;-52
2022/11/14 09:32:26;;;;;;;0.90;0.90;;;7.80;99.90;;;;;;5027869;28;20056;-51
2022/11/14 09:35:12;;;;;;;1.85;1.00;;;7.80;99.90;;;;;;5026829;28;20122;-51
2022/11/14 09:37:59;;;;;;;1.35;1.23;;;7.90;99.90;;;;;;5026901;28;20440;-52
2022/11/14 09:41:18;;;;;;;1.25;1.15;;;8.00;99.90;;;;;;5032070;28;20072;-52
2022/11/14 09:44:19;;;;;;;1.42;1.10;;;8.00;99.90;;;;;;5028402;28;20055;-51
2022/11/14 09:47:13;;;;;;;0.73;0.73;;;8.00;99.90;;;;;;5027226;28;20059;-51
2022/11/14 09:50:14;;;;;;;1.27;0.98;;;7.90;99.90;;;;;;5024174;28;20915;-51
2022/11/14 09:53:25;;;;;;;2.95;0.90;;;7.90;99.90;;;;;;5034275;28;20843;-48
2022/11/14 09:56:13;;;;;;;2.22;0.90;;;7.90;99.90;;;;;;5028009;28;20223;-49
2022/11/14 09:58:59;;;;;;;1.23;0.80;;;8.00;99.90;;;;;;5031386;28;20155;-49
2022/11/14 10:02:13;;;;;;;3.55;0.70;;;8.10;99.90;;;;;;5034576;28;20095;-50
2022/11/14 10:05:30;;;;;;;1.42;0.68;;;8.30;99.90;;;;;;5029678;28;20056;-48
2022/11/14 10:08:59;;;;;;;0.80;0.80;;;8.50;99.90;;;;;;5027612;28;20059;-51
2022/11/14 10:11:49;;;;;;;7.25;4.38;;;8.60;99.90;;;;;;4981389;28;20058;-50
2022/11/14 10:15:00;;;;;;;2.10;1.83;;;8.60;99.90;;;;;;5029445;28;20052;-50
2022/11/14 10:18:10;;;;;;;1.10;0.65;;;8.50;99.90;;;;;;5025285;28;20048;-48
2022/11/14 10:21:33;;;;;;;0.98;0.77;;;8.40;99.90;;;;;;5025351;28;20056;-49
2022/11/14 10:24:39;;;;;;;0.98;0.90;;;8.40;99.90;;;;;;5029984;28;20087;-49
2022/11/14 10:27:48;;;;;;;1.27;1.15;;;8.30;99.90;;;;;;5027334;28;20068;-54
2022/11/14 10:31:04;;;;;;;1.15;1.05;;;8.30;99.90;;;;;;5028688;28;20092;-47
2022/11/14 10:34:07;;;;;;;0.80;0.80;;;8.30;99.90;;;;;;5027400;28;20060;-49
2022/11/14 10:37:05;;;;;;;4.07;1.70;;;8.30;99.90;;;;;;5020772;28;20509;-48
2022/11/14 10:39:53;;;;;;;7.75;2.45;;;8.30;99.90;;;;;;5026212;28;20084;-47
2022/11/14 10:42:42;;;;;;;2.25;1.30;;;8.30;99.90;;;;;;5029674;28;20154;-47
2022/11/14 10:45:47;;;;;;;1.20;1.00;;;8.30;99.90;;;;;;5025438;28;20059;-47
2022/11/14 10:48:38;;;;;;;6.05;1.30;;;8.40;99.90;;;;;;5022465;28;20094;-49
2022/11/14 10:51:23;;;;;;;1.90;1.38;;;8.50;99.90;;;;;;5025663;28;20080;-48
2022/11/14 10:54:08;;;;;;;3.25;1.50;;;8.70;99.90;;;;;;5025866;28;20088;-51
2022/11/14 10:56:54;;;;;;;2.25;1.20;;;8.70;99.90;;;;;;5028009;28;20055;-49
2022/11/14 10:59:41;;;;;;;3.33;1.27;;;8.90;99.90;;;;;;5037503;28;20052;-50
2022/11/14 11:02:53;;;;;;;1.77;1.23;;;9.00;99.90;;;;;;5025942;28;20577;-48
2022/11/14 11:05:50;;;;;;;1.48;1.10;;;9.10;99.90;;;;;;5025377;28;20186;-48
2022/11/14 11:12:00;;;;;;;3.53;1.75;;;9.20;99.90;;;;;;5030773;28;20071;-48
2022/11/14 11:14:48;;;;;;;1.85;1.25;;;9.30;99.90;;;;;;5030928;28;20064;-48
2022/11/14 11:17:33;;;;;;;2.67;1.23;;;9.30;99.90;;;;;;5026172;28;20121;-49
2022/11/14 11:20:33;;;;;;;5.38;1.20;;;9.30;99.90;;;;;;5027350;28;20052;-48
2022/11/14 11:23:24;;;;;;;2.15;1.30;;;9.40;99.90;;;;;;5023439;28;20231;-48
2022/11/14 11:26:18;;;;;;;2.22;0.80;;;9.40;99.90;;;;;;5028436;28;20052;-48
2022/11/14 11:29:03;;;;;;;1.42;0.80;;;9.40;99.90;;;;;;5030417;28;20435;-49
2022/11/14 11:31:52;;;;;;;1.08;0.93;;;9.40;99.90;;;;;;5032797;28;20060;-50
2022/11/14 11:34:37;;;;;;;3.20;1.23;;;9.50;99.90;;;;;;5033678;28;20552;-50
2022/11/14 11:38:09;;;;;;;1.63;1.10;;;9.60;99.90;;;;;;5032153;28;20898;-48
2022/11/14 11:41:15;;;;;;;1.00;0.90;;;9.70;99.90;;;;;;5033079;28;20146;-50
2022/11/14 11:44:18;;;;;;;0.98;0.80;;;9.80;99.90;;;;;;5035297;28;20060;-48
2022/11/14 11:47:11;;;;;;;1.05;0.70;;;10.00;99.90;;;;;;5030518;28;20956;-48
2022/11/14 11:49:56;;;;;;;3.42;0.80;;;10.10;99.90;;;;;;5032529;28;20174;-48
2022/11/14 11:53:13;;;;;;;1.38;0.77;;;10.20;99.90;;;;;;5029451;28;20605;-49
2022/11/14 11:56:19;;;;;;;0.70;0.70;;;10.40;99.90;;;;;;5036217;28;20059;-48
2022/11/14 11:59:21;;;;;;;0.93;0.88;;;10.40;99.90;;;;;;5036619;28;20257;-47
2022/11/14 12:02:25;;;;;;;1.60;1.00;;;10.60;99.90;;;;;;5028822;28;20722;-48
2022/11/14 12:05:16;;;;;;;0.77;0.75;;;10.70;99.90;;;;;;5031275;28;20079;-49
2022/11/14 12:08:06;;;;;;;5.10;1.63;;;10.70;99.90;;;;;;5033488;28;20060;-51
2022/11/14 12:10:53;;;;;;;3.35;0.90;;;10.80;99.90;;;;;;5031422;28;20064;-51
2022/11/14 12:13:57;;;;;;;0.80;0.80;;;10.80;99.90;;;;;;5030716;28;20068;-52
2022/11/14 12:17:14;;;;;;;1.63;0.82;;;10.80;99.90;;;;;;5030561;28;20048;-52
2022/11/14 12:20:28;;;;;;;0.90;0.60;;;10.80;99.90;;;;;;5017386;28;20056;-49
2022/11/14 12:23:19;;;;;;;1.63;0.80;;;10.80;99.90;;;;;;5025035;28;20052;-51
2022/11/14 12:26:10;;;;;;;0.85;0.60;;;10.80;99.90;;;;;;5029197;28;20765;-49
2022/11/14 12:29:25;;;;;;;0.70;0.70;;;10.90;99.90;;;;;;5033098;28;20072;-49
2022/11/14 12:32:22;;;;;;;1.05;0.63;;;11.00;99.90;;;;;;5032457;28;20083;-52
2022/11/14 12:35:33;;;;;;;1.95;1.08;;;11.10;99.90;;;;;;5031818;28;20063;-52
2022/11/14 12:38:20;;;;;;;1.33;0.85;;;11.30;99.90;;;;;;5028742;28;20079;-53
2022/11/14 12:41:07;;;;;;;1.05;0.82;;;11.40;99.90;;;;;;5025710;28;20851;-50
2022/11/14 12:44:12;;;;;;;2.70;1.23;;;11.50;99.90;;;;;;5030164;28;20056;-49
2022/11/14 12:47:04;;;;;;;1.90;0.98;;;11.50;99.90;;;;;;5030738;28;20434;-49
2022/11/14 12:49:52;;;;;;;0.75;0.60;;;11.50;99.90;;;;;;5029851;28;20084;-51
2022/11/14 12:52:43;;;;;;;1.30;1.08;;;11.50;99.90;;;;;;5027129;28;20053;-48
2022/11/14 12:55:28;;;;;;;4.28;1.00;;;11.60;99.90;;;;;;5032303;28;20130;-48
2022/11/14 12:58:22;;;;;;;1.27;0.82;;;11.50;99.90;;;;;;5026675;28;20049;-48
2022/11/14 13:01:23;;;;;;;1.08;0.77;;;11.40;99.90;;;;;;5028085;28;20122;-49
2022/11/14 13:04:31;;;;;;;3.05;1.05;;;11.40;99.90;;;;;;5034842;28;20059;-51
2022/11/14 13:07:36;;;;;;;4.90;1.10;;;11.30;99.90;;;;;;5032162;28;20071;-50
2022/11/14 13:10:32;;;;;;;3.08;0.93;;;11.20;99.90;;;;;;5026071;28;20064;-48
2022/11/14 13:22:44;;;;;;;1.00;0.90;;;11.50;99.90;;;;;;5028760;28;20064;-51
2022/11/14 13:25:30;;;;;;;1.40;0.90;;;11.70;99.90;;;;;;5026231;28;20222;-51
2022/11/14 13:28:46;;;;;;;1.15;0.85;;;12.00;99.90;;;;;;5029591;28;20064;-53
2022/11/14 13:31:35;;;;;;;2.30;1.02;;;12.20;99.90;;;;;;5031023;28;20056;-51
2022/11/14 13:34:42;;;;;;;0.60;0.60;;;12.40;99.90;;;;;;5024782;28;20186;-52
2022/11/14 13:37:36;;;;;;;0.75;0.70;;;12.50;99.90;;;;;;5025049;28;20052;-49
2022/11/14 13:40:24;;;;;;;3.65;1.10;;;12.70;99.90;;;;;;5029205;28;20699;-51
2022/11/14 13:43:44;;;;;;;3.83;0.70;;;13.00;99.90;;;;;;5028522;28;20449;-53
2022/11/14 13:46:50;;;;;;;1.48;0.70;;;13.10;99.90;;;;;;5017640;28;20217;-49
2022/11/14 13:49:58;;;;;;;0.98;0.88;;;13.10;99.90;;;;;;5030811;28;20080;-52
2022/11/14 13:52:47;;;;;;;2.40;1.17;;;13.00;99.90;;;;;;5029168;28;20117;-52
2022/11/14 13:55:55;;;;;;;1.73;0.80;;;12.80;99.90;;;;;;5023710;28;20060;-52
2022/11/14 13:59:07;;;;;;;0.85;0.73;;;12.50;99.90;;;;;;5022673;28;20828;-52
2022/11/14 14:02:15;;;;;;;2.28;1.05;;;12.20;99.90;;;;;;5028559;28;20056;-51
2022/11/14 14:05:26;;;;;;;2.13;1.05;;;11.90;99.90;;;;;;5026077;28;20064;-52
2022/11/14 14:08:32;;;;;;;2.80;1.08;;;11.60;99.90;;;;;;5028823;28;20269;-52
2022/11/14 14:11:35;;;;;;;3.20;1.15;;;11.50;99.90;;;;;;5026682;28;20056;-52
2022/11/14 14:14:31;;;;;;;2.33;1.30;;;11.30;99.90;;;;;;5030384;28;20060;-51
2022/11/14 14:17:36;;;;;;;5.13;1.40;;;11.10;99.90;;;;;;5025341;28;20222;-51
2022/11/14 14:20:32;;;;;;;1.45;1.00;;;11.00;99.90;;;;;;5027868;28;20055;-52
2022/11/14 14:23:37;;;;;;;1.77;0.98;;;10.90;99.90;;;;;;5029710;28;20060;-52
2022/11/14 14:26:31;;;;;;;3.55;1.33;;;10.90;99.90;;;;;;5025142;28;20065;-54
2022/11/14 14:29:36;;;;;;;2.50;1.15;;;10.80;99.90;;;;;;5022339;28;20095;-52
2022/11/14 14:32:23;;;;;;;3.60;1.10;;;10.70;99.90;;;;;;5027316;28;20190;-49
2022/11/14 14:35:24;;;;;;;1.48;1.05;;;10.60;99.90;;;;;;5025049;28;20068;-53
2022/11/14 14:38:12;;;;;;;3.08;1.40;;;10.60;99.90;;;;;;5024818;28;20929;-53
2022/11/14 14:40:57;;;;;;;2.05;1.10;;;10.50;99.90;;;;;;5028178;28;20067;-52
2022/11/14 14:43:54;;;;;;;1.88;1.05;;;10.40;99.90;;;;;;5030380;28;20114;-52
2022/11/14 14:46:39;;;;;;;3.42;1.25;;;10.20;99.90;;;;;;5030533;28;20052;-52
2022/11/14 14:49:30;;;;;;;4.88;1.10;;;10.20;99.90;;;;;;5024992;28;20063;-54
2022/11/14 14:52:31;;;;;;;1.77;1.10;;;10.10;99.90;;;;;;5021490;28;20728;-53
2022/11/14 14:55:35;;;;;;;4.72;1.27;;;10.00;99.90;;;;;;5028704;28;20573;-53
2022/11/14 14:58:28;;;;;;;4.60;0.90;;;9.90;99.90;;;;;;5026327;28;20884;-53
2022/11/14 15:01:15;;;;;;;1.67;1.00;;;9.90;99.90;;;;;;5028126;28;20538;-53
2022/11/14 15:04:06;;;;;;;2.65;0.93;;;9.80;99.90;;;;;;5028207;28;20129;-52